Terminal Aerodrome Forecast
Issued by NWS

Home | Current Version | Previous Version | Text Only | Print | Product List | Glossary On
Versions: 1 2 3 4 5 6 7 8 9 10 11 12 13
761
FTUS41 KLWX 222320
TAFMTN
TAF
KMTN 222320Z 2300/2324 18004KT P6SM BKN130
     FM230600 19004KT 4SM BR BKN015
     FM231100 VRB03KT 2SM BR BKN015
     FM231300 20004KT 4SM BR BKN015
     FM231400 20004KT P6SM BKN060
     FM231700 19006KT P6SM SCT050
     FM232200 18008KT P6SM BKN050
      AMD NOT SKED 2302/2312=

USA.gov is the U.S. government's official web portal to all federal, state and local government web resources and services.